Long Lake, MN (55356)

12:37 PM CST on February 14, 2016 (GMT -0600)
Long Lake | | Change Station
CLOSE
Current Station
Personal Weather Station
Location: Long Lake, MN
Elevation: 1004 ft
Nearby Weather Stations

Elev 1004 ft 44.99 °N, 93.56 °W | Updated 10 seconds ago

Snow
Snow
18.7 °F
Feels Like 19 °F
N
2.7
Wind Variable Wind from East
Gusts 4.9 mph

Today
High -- | Low -- °F
--% Chance of Precip.
Yesterday
High -- | Low -- °F
Precip. -- in
Pressure 29.99 in
Visibility 3.0 miles
Clouds Overcast 2300 ft
Windchill 19 °F
Dew Point 7 °F
Humidity 59%
Rainfall in
Snow Depth Not available.
7:17 AM 5:40 PM
Waxing Crescent, 44% visible
SPECI KMIC 141800Z 17015KT 3SM -SN OVC023 M08/M12 A2999 RMK AO2 P0000 T10781122
Pressure 29.99 in
Visibility 3.0 miles
Clouds Overcast 2300 ft
Windchill 19 °F
Dew Point 7 °F
Humidity 59%
Rainfall in
Snow Depth Not available.
7:17 AM 5:40 PM
Waxing Crescent, 44% visible
SPECI KMIC 141800Z 17015KT 3SM -SN OVC023 M08/M12 A2999 RMK AO2 P0000 T10781122

10-Day Weather Forecast

Almanac

Astronomy

Feb. 14, 2016 Rise Set
Actual Time
Civil Twilight
Nautical Twilight
Astronomical Twilight
Moon
Length of Visible Light
Length of Day
Tomorrow will be .
, % of the Moon is Illuminated

Today's Extremes

State Highs State Lows

Community

WunderPhotos

Upload Photos

1,892,868 photos uploaded!

WunderBlog® & News

Nearby

Air Quality

  Air Quality AQ Index Pollutant
Not available.

Snow Depth

Station Depth Elevation

Earthquake Activity

City Distance Mag. Time & Date
Minimum magnitude displayed is 2.5.

Coastal Water Temperatures

Place Temperature

Stations

Nearby Weather Stations

Station Location Temp. Windchill Dew Point Humidity Wind Precip. Elev Updated Type
                   

Watches & Warnings

There are currently no watches in effect.